sensor_id;sensor_type;location;lat;lon;timestamp;P1;durP1;ratioP1;P2;durP2;ratioP2
65572;SDS011;52214;50.940;13.996;2023-03-01T00:01:35;222.77;;;129.10;;
65572;SDS011;52214;50.940;13.996;2023-03-01T00:04:01;231.95;;;134.05;;
65572;SDS011;52214;50.940;13.996;2023-03-01T00:06:27;236.13;;;133.53;;
65572;SDS011;52214;50.940;13.996;2023-03-01T00:08:53;233.75;;;134.13;;
65572;SDS011;52214;50.940;13.996;2023-03-01T00:11:22;233.45;;;131.52;;
65572;SDS011;52214;50.940;13.996;2023-03-01T00:13:50;221.67;;;130.93;;
65572;SDS011;52214;50.940;13.996;2023-03-01T00:16:20;235.35;;;132.70;;
65572;SDS011;52214;50.940;13.996;2023-03-01T00:18:48;224.30;;;124.88;;
65572;SDS011;52214;50.940;13.996;2023-03-01T00:21:13;225.27;;;129.98;;
65572;SDS011;52214;50.940;13.996;2023-03-01T00:23:39;217.47;;;125.13;;
65572;SDS011;52214;50.940;13.996;2023-03-01T00:26:06;214.30;;;126.33;;
65572;SDS011;52214;50.940;13.996;2023-03-01T00:28:33;218.15;;;127.07;;
65572;SDS011;52214;50.940;13.996;2023-03-01T00:31:02;221.20;;;127.00;;
65572;SDS011;52214;50.940;13.996;2023-03-01T00:33:30;214.07;;;127.00;;
65572;SDS011;52214;50.940;13.996;2023-03-01T00:35:57;220.80;;;127.60;;
65572;SDS011;52214;50.940;13.996;2023-03-01T00:38:23;213.77;;;125.07;;
65572;SDS011;52214;50.940;13.996;2023-03-01T00:40:49;207.93;;;124.65;;
65572;SDS011;52214;50.940;13.996;2023-03-01T00:43:15;217.47;;;126.70;;
65572;SDS011;52214;50.940;13.996;2023-03-01T00:45:40;208.67;;;122.77;;
65572;SDS011;52214;50.940;13.996;2023-03-01T00:48:06;205.90;;;122.07;;
65572;SDS011;52214;50.940;13.996;2023-03-01T00:50:32;216.47;;;124.87;;
65572;SDS011;52214;50.940;13.996;2023-03-01T00:52:57;212.77;;;122.82;;
65572;SDS011;52214;50.940;13.996;2023-03-01T00:55:23;212.03;;;122.63;;
65572;SDS011;52214;50.940;13.996;2023-03-01T00:57:50;206.63;;;120.75;;
65572;SDS011;52214;50.940;13.996;2023-03-01T01:00:18;205.77;;;118.80;;
65572;SDS011;52214;50.940;13.996;2023-03-01T01:02:45;207.87;;;123.73;;
65572;SDS011;52214;50.940;13.996;2023-03-01T01:05:11;209.65;;;120.72;;
65572;SDS011;52214;50.940;13.996;2023-03-01T01:07:37;197.65;;;118.28;;
65572;SDS011;52214;50.940;13.996;2023-03-01T01:10:03;194.47;;;118.50;;
65572;SDS011;52214;50.940;13.996;2023-03-01T01:12:29;203.60;;;117.00;;
65572;SDS011;52214;50.940;13.996;2023-03-01T01:14:55;204.60;;;120.90;;
65572;SDS011;52214;50.940;13.996;2023-03-01T01:17:21;198.93;;;119.03;;
65572;SDS011;52214;50.940;13.996;2023-03-01T01:19:46;203.38;;;117.63;;
65572;SDS011;52214;50.940;13.996;2023-03-01T01:22:12;192.73;;;117.20;;
65572;SDS011;52214;50.940;13.996;2023-03-01T01:24:37;194.10;;;117.63;;
65572;SDS011;52214;50.940;13.996;2023-03-01T01:27:03;200.02;;;118.03;;
65572;SDS011;52214;50.940;13.996;2023-03-01T01:29:28;193.97;;;114.90;;
65572;SDS011;52214;50.940;13.996;2023-03-01T01:31:54;192.77;;;117.27;;
65572;SDS011;52214;50.940;13.996;2023-03-01T01:34:21;198.93;;;118.10;;
65572;SDS011;52214;50.940;13.996;2023-03-01T01:36:48;190.95;;;114.57;;
65572;SDS011;52214;50.940;13.996;2023-03-01T01:39:17;194.43;;;115.00;;
65572;SDS011;52214;50.940;13.996;2023-03-01T01:41:43;194.52;;;114.45;;
65572;SDS011;52214;50.940;13.996;2023-03-01T01:44:25;188.10;;;115.38;;
65572;SDS011;52214;50.940;13.996;2023-03-01T01:46:53;186.87;;;110.70;;
65572;SDS011;52214;50.940;13.996;2023-03-01T01:49:25;191.95;;;111.30;;
65572;SDS011;52214;50.940;13.996;2023-03-01T01:52:04;196.57;;;114.60;;
65572;SDS011;52214;50.940;13.996;2023-03-01T01:54:40;186.98;;;111.20;;
65572;SDS011;52214;50.940;13.996;2023-03-01T01:57:12;193.93;;;108.40;;
65572;SDS011;52214;50.940;13.996;2023-03-01T01:59:41;185.50;;;108.07;;
65572;SDS011;52214;50.940;13.996;2023-03-01T02:02:10;173.02;;;106.80;;
65572;SDS011;52214;50.940;13.996;2023-03-01T02:04:38;188.30;;;114.00;;
65572;SDS011;52214;50.940;13.996;2023-03-01T02:07:09;184.05;;;108.90;;
65572;SDS011;52214;50.940;13.996;2023-03-01T02:09:47;181.82;;;110.13;;
65572;SDS011;52214;50.940;13.996;2023-03-01T02:12:18;184.17;;;110.23;;
65572;SDS011;52214;50.940;13.996;2023-03-01T02:14:46;184.40;;;111.60;;
65572;SDS011;52214;50.940;13.996;2023-03-01T02:17:12;187.82;;;110.38;;
65572;SDS011;52214;50.940;13.996;2023-03-01T02:19:49;172.88;;;106.25;;
65572;SDS011;52214;50.940;13.996;2023-03-01T02:22:37;178.88;;;107.55;;
65572;SDS011;52214;50.940;13.996;2023-03-01T02:25:08;178.50;;;105.77;;
65572;SDS011;52214;50.940;13.996;2023-03-01T02:28:02;186.70;;;105.32;;
65572;SDS011;52214;50.940;13.996;2023-03-01T02:30:52;179.20;;;107.00;;
65572;SDS011;52214;50.940;13.996;2023-03-01T02:33:38;177.90;;;104.88;;
65572;SDS011;52214;50.940;13.996;2023-03-01T02:36:06;190.27;;;109.68;;
65572;SDS011;52214;50.940;13.996;2023-03-01T02:38:35;176.30;;;105.57;;
65572;SDS011;52214;50.940;13.996;2023-03-01T02:41:01;175.30;;;105.95;;
65572;SDS011;52214;50.940;13.996;2023-03-01T02:43:30;179.13;;;106.43;;
65572;SDS011;52214;50.940;13.996;2023-03-01T02:46:03;178.07;;;105.20;;
65572;SDS011;52214;50.940;13.996;2023-03-01T02:48:39;168.30;;;102.35;;
65572;SDS011;52214;50.940;13.996;2023-03-01T02:51:10;177.40;;;103.72;;
65572;SDS011;52214;50.940;13.996;2023-03-01T02:54:04;164.65;;;100.47;;
65572;SDS011;52214;50.940;13.996;2023-03-01T02:56:45;170.07;;;100.80;;
65572;SDS011;52214;50.940;13.996;2023-03-01T02:59:16;169.70;;;101.63;;
65572;SDS011;52214;50.940;13.996;2023-03-01T03:01:45;164.48;;;100.78;;
65572;SDS011;52214;50.940;13.996;2023-03-01T03:04:13;169.63;;;104.00;;
65572;SDS011;52214;50.940;13.996;2023-03-01T03:06:43;166.02;;;101.47;;
65572;SDS011;52214;50.940;13.996;2023-03-01T03:09:14;164.10;;;103.10;;
65572;SDS011;52214;50.940;13.996;2023-03-01T03:11:40;172.57;;;100.65;;
65572;SDS011;52214;50.940;13.996;2023-03-01T03:14:08;162.50;;;99.20;;
65572;SDS011;52214;50.940;13.996;2023-03-01T03:16:45;170.30;;;103.85;;
65572;SDS011;52214;50.940;13.996;2023-03-01T03:19:13;164.65;;;97.90;;
65572;SDS011;52214;50.940;13.996;2023-03-01T03:21:39;166.80;;;99.23;;
65572;SDS011;52214;50.940;13.996;2023-03-01T03:24:05;166.93;;;99.13;;
65572;SDS011;52214;50.940;13.996;2023-03-01T03:26:31;168.98;;;101.00;;
65572;SDS011;52214;50.940;13.996;2023-03-01T03:28:57;160.27;;;96.63;;
65572;SDS011;52214;50.940;13.996;2023-03-01T03:31:23;161.32;;;97.35;;
65572;SDS011;52214;50.940;13.996;2023-03-01T03:33:49;164.45;;;98.03;;
65572;SDS011;52214;50.940;13.996;2023-03-01T03:36:16;159.80;;;96.32;;
65572;SDS011;52214;50.940;13.996;2023-03-01T03:38:43;156.17;;;92.90;;
65572;SDS011;52214;50.940;13.996;2023-03-01T03:41:11;160.13;;;94.93;;
65572;SDS011;52214;50.940;13.996;2023-03-01T03:43:39;160.23;;;96.50;;
65572;SDS011;52214;50.940;13.996;2023-03-01T03:46:05;157.80;;;95.82;;
65572;SDS011;52214;50.940;13.996;2023-03-01T03:48:34;153.32;;;94.25;;
65572;SDS011;52214;50.940;13.996;2023-03-01T03:51:01;156.50;;;93.00;;
65572;SDS011;52214;50.940;13.996;2023-03-01T03:53:27;158.40;;;93.20;;
65572;SDS011;52214;50.940;13.996;2023-03-01T03:55:54;158.38;;;95.55;;
65572;SDS011;52214;50.940;13.996;2023-03-01T03:58:21;157.87;;;94.17;;
65572;SDS011;52214;50.940;13.996;2023-03-01T04:00:50;150.68;;;91.18;;
65572;SDS011;52214;50.940;13.996;2023-03-01T04:03:19;158.18;;;96.20;;
65572;SDS011;52214;50.940;13.996;2023-03-01T04:05:45;150.00;;;92.72;;
65572;SDS011;52214;50.940;13.996;2023-03-01T04:08:12;154.90;;;93.35;;
65572;SDS011;52214;50.940;13.996;2023-03-01T04:10:40;144.97;;;92.30;;
65572;SDS011;52214;50.940;13.996;2023-03-01T04:13:08;157.25;;;93.05;;
65572;SDS011;52214;50.940;13.996;2023-03-01T04:15:36;156.57;;;93.85;;
65572;SDS011;52214;50.940;13.996;2023-03-01T04:18:02;150.07;;;90.13;;
65572;SDS011;52214;50.940;13.996;2023-03-01T04:20:30;142.03;;;88.83;;
65572;SDS011;52214;50.940;13.996;2023-03-01T04:23:01;154.98;;;91.80;;
65572;SDS011;52214;50.940;13.996;2023-03-01T04:25:50;143.45;;;89.43;;
65572;SDS011;52214;50.940;13.996;2023-03-01T04:28:24;142.70;;;89.35;;
65572;SDS011;52214;50.940;13.996;2023-03-01T04:30:52;146.82;;;88.85;;
65572;SDS011;52214;50.940;13.996;2023-03-01T04:33:19;152.03;;;86.73;;
65572;SDS011;52214;50.940;13.996;2023-03-01T04:35:45;152.63;;;88.75;;
65572;SDS011;52214;50.940;13.996;2023-03-01T04:38:11;142.18;;;88.93;;
65572;SDS011;52214;50.940;13.996;2023-03-01T04:40:36;145.20;;;89.50;;
65572;SDS011;52214;50.940;13.996;2023-03-01T04:43:02;147.45;;;87.65;;
65572;SDS011;52214;50.940;13.996;2023-03-01T04:45:29;141.27;;;85.80;;
65572;SDS011;52214;50.940;13.996;2023-03-01T04:47:55;142.68;;;87.45;;
65572;SDS011;52214;50.940;13.996;2023-03-01T04:50:23;143.65;;;86.00;;
65572;SDS011;52214;50.940;13.996;2023-03-01T04:52:51;140.37;;;87.37;;
65572;SDS011;52214;50.940;13.996;2023-03-01T04:55:17;138.88;;;87.07;;
65572;SDS011;52214;50.940;13.996;2023-03-01T04:57:43;136.88;;;86.13;;
65572;SDS011;52214;50.940;13.996;2023-03-01T05:00:10;143.30;;;86.57;;
65572;SDS011;52214;50.940;13.996;2023-03-01T05:02:46;144.48;;;85.78;;
65572;SDS011;52214;50.940;13.996;2023-03-01T05:05:14;142.40;;;85.55;;
65572;SDS011;52214;50.940;13.996;2023-03-01T05:07:40;133.35;;;83.78;;
65572;SDS011;52214;50.940;13.996;2023-03-01T05:10:06;141.40;;;84.90;;
65572;SDS011;52214;50.940;13.996;2023-03-01T05:12:32;135.55;;;84.43;;
65572;SDS011;52214;50.940;13.996;2023-03-01T05:14:57;130.05;;;84.70;;
65572;SDS011;52214;50.940;13.996;2023-03-01T05:17:43;133.38;;;83.45;;
65572;SDS011;52214;50.940;13.996;2023-03-01T05:20:10;138.82;;;83.10;;
65572;SDS011;52214;50.940;13.996;2023-03-01T05:22:36;134.07;;;81.47;;
65572;SDS011;52214;50.940;13.996;2023-03-01T05:25:03;134.63;;;83.40;;
65572;SDS011;52214;50.940;13.996;2023-03-01T05:27:29;132.60;;;83.32;;
65572;SDS011;52214;50.940;13.996;2023-03-01T05:29:56;131.20;;;82.38;;
65572;SDS011;52214;50.940;13.996;2023-03-01T05:32:21;128.45;;;82.30;;
65572;SDS011;52214;50.940;13.996;2023-03-01T05:34:47;133.57;;;81.57;;
65572;SDS011;52214;50.940;13.996;2023-03-01T05:37:13;131.93;;;79.73;;
65572;SDS011;52214;50.940;13.996;2023-03-01T05:39:38;136.25;;;82.28;;
65572;SDS011;52214;50.940;13.996;2023-03-01T05:42:04;133.13;;;79.05;;
65572;SDS011;52214;50.940;13.996;2023-03-01T05:44:30;129.07;;;79.13;;
65572;SDS011;52214;50.940;13.996;2023-03-01T05:46:56;133.75;;;82.15;;
65572;SDS011;52214;50.940;13.996;2023-03-01T05:49:22;128.17;;;80.30;;
65572;SDS011;52214;50.940;13.996;2023-03-01T05:51:50;129.77;;;76.80;;
65572;SDS011;52214;50.940;13.996;2023-03-01T05:54:17;131.70;;;79.45;;
65572;SDS011;52214;50.940;13.996;2023-03-01T05:56:43;126.65;;;79.95;;
65572;SDS011;52214;50.940;13.996;2023-03-01T05:59:09;128.87;;;76.67;;
65572;SDS011;52214;50.940;13.996;2023-03-01T06:01:35;129.68;;;76.38;;
65572;SDS011;52214;50.940;13.996;2023-03-01T06:04:01;120.70;;;75.30;;
65572;SDS011;52214;50.940;13.996;2023-03-01T06:06:28;126.85;;;76.25;;
65572;SDS011;52214;50.940;13.996;2023-03-01T06:08:54;120.47;;;76.60;;
65572;SDS011;52214;50.940;13.996;2023-03-01T06:11:20;126.50;;;75.73;;
65572;SDS011;52214;50.940;13.996;2023-03-01T06:13:46;120.30;;;77.13;;
65572;SDS011;52214;50.940;13.996;2023-03-01T06:16:12;116.88;;;74.65;;
65572;SDS011;52214;50.940;13.996;2023-03-01T06:18:39;127.65;;;77.53;;
65572;SDS011;52214;50.940;13.996;2023-03-01T06:21:06;125.80;;;77.70;;
65572;SDS011;52214;50.940;13.996;2023-03-01T06:23:33;130.05;;;78.57;;
65572;SDS011;52214;50.940;13.996;2023-03-01T06:25:59;117.50;;;75.15;;
65572;SDS011;52214;50.940;13.996;2023-03-01T06:28:26;116.40;;;73.23;;
65572;SDS011;52214;50.940;13.996;2023-03-01T06:30:52;117.45;;;73.47;;
65572;SDS011;52214;50.940;13.996;2023-03-01T06:33:18;114.82;;;73.43;;
65572;SDS011;52214;50.940;13.996;2023-03-01T06:35:47;121.77;;;73.80;;
65572;SDS011;52214;50.940;13.996;2023-03-01T06:38:12;120.47;;;73.57;;
65572;SDS011;52214;50.940;13.996;2023-03-01T06:40:40;123.57;;;73.22;;
65572;SDS011;52214;50.940;13.996;2023-03-01T06:43:06;116.37;;;75.00;;
65572;SDS011;52214;50.940;13.996;2023-03-01T06:45:32;114.32;;;71.80;;
65572;SDS011;52214;50.940;13.996;2023-03-01T06:48:06;118.55;;;72.15;;
65572;SDS011;52214;50.940;13.996;2023-03-01T06:50:33;122.65;;;72.47;;
65572;SDS011;52214;50.940;13.996;2023-03-01T06:52:59;117.35;;;74.13;;
65572;SDS011;52214;50.940;13.996;2023-03-01T06:55:25;106.87;;;69.47;;
65572;SDS011;52214;50.940;13.996;2023-03-01T06:57:59;108.55;;;70.72;;
65572;SDS011;52214;50.940;13.996;2023-03-01T07:00:26;120.88;;;73.78;;
65572;SDS011;52214;50.940;13.996;2023-03-01T07:02:53;111.90;;;71.47;;
65572;SDS011;52214;50.940;13.996;2023-03-01T07:05:19;117.43;;;73.13;;
65572;SDS011;52214;50.940;13.996;2023-03-01T07:07:45;110.68;;;70.95;;
65572;SDS011;52214;50.940;13.996;2023-03-01T07:10:10;106.53;;;69.97;;
65572;SDS011;52214;50.940;13.996;2023-03-01T07:12:37;107.40;;;70.10;;
65572;SDS011;52214;50.940;13.996;2023-03-01T07:15:02;111.72;;;67.72;;
65572;SDS011;52214;50.940;13.996;2023-03-01T07:17:29;106.90;;;69.17;;
65572;SDS011;52214;50.940;13.996;2023-03-01T07:19:54;114.53;;;70.57;;
65572;SDS011;52214;50.940;13.996;2023-03-01T07:22:20;108.70;;;71.57;;
65572;SDS011;52214;50.940;13.996;2023-03-01T07:24:46;105.00;;;67.50;;
65572;SDS011;52214;50.940;13.996;2023-03-01T07:27:11;106.43;;;67.50;;
65572;SDS011;52214;50.940;13.996;2023-03-01T07:29:37;107.60;;;69.53;;
65572;SDS011;52214;50.940;13.996;2023-03-01T07:32:03;110.15;;;70.68;;
65572;SDS011;52214;50.940;13.996;2023-03-01T07:34:29;109.90;;;68.20;;
65572;SDS011;52214;50.940;13.996;2023-03-01T07:36:55;101.10;;;68.63;;
65572;SDS011;52214;50.940;13.996;2023-03-01T07:39:21;102.77;;;67.80;;
65572;SDS011;52214;50.940;13.996;2023-03-01T07:41:48;106.80;;;66.10;;
65572;SDS011;52214;50.940;13.996;2023-03-01T07:44:14;101.30;;;66.93;;
65572;SDS011;52214;50.940;13.996;2023-03-01T07:46:41;96.18;;;64.05;;
65572;SDS011;52214;50.940;13.996;2023-03-01T07:49:09;98.80;;;66.43;;
65572;SDS011;52214;50.940;13.996;2023-03-01T07:51:35;101.57;;;68.03;;
65572;SDS011;52214;50.940;13.996;2023-03-01T07:54:01;107.13;;;66.75;;
65572;SDS011;52214;50.940;13.996;2023-03-01T07:56:27;102.70;;;65.95;;
65572;SDS011;52214;50.940;13.996;2023-03-01T07:58:53;102.83;;;64.80;;
65572;SDS011;52214;50.940;13.996;2023-03-01T08:01:20;103.40;;;64.38;;
65572;SDS011;52214;50.940;13.996;2023-03-01T08:03:47;104.18;;;66.03;;
65572;SDS011;52214;50.940;13.996;2023-03-01T08:06:14;106.23;;;63.67;;
65572;SDS011;52214;50.940;13.996;2023-03-01T08:08:41;102.20;;;64.25;;
65572;SDS011;52214;50.940;13.996;2023-03-01T08:11:09;94.95;;;64.13;;
65572;SDS011;52214;50.940;13.996;2023-03-01T08:13:39;96.65;;;62.53;;
65572;SDS011;52214;50.940;13.996;2023-03-01T08:16:06;99.27;;;62.73;;
65572;SDS011;52214;50.940;13.996;2023-03-01T08:18:36;94.95;;;62.70;;
65572;SDS011;52214;50.940;13.996;2023-03-01T08:21:10;96.78;;;61.45;;
65572;SDS011;52214;50.940;13.996;2023-03-01T08:23:46;95.55;;;61.60;;
65572;SDS011;52214;50.940;13.996;2023-03-01T08:26:18;95.70;;;61.90;;
65572;SDS011;52214;50.940;13.996;2023-03-01T08:28:54;88.23;;;59.60;;
65572;SDS011;52214;50.940;13.996;2023-03-01T08:31:35;89.88;;;58.28;;
65572;SDS011;52214;50.940;13.996;2023-03-01T08:34:05;98.75;;;61.97;;
65572;SDS011;52214;50.940;13.996;2023-03-01T08:36:36;98.10;;;63.33;;
65572;SDS011;52214;50.940;13.996;2023-03-01T08:39:05;92.47;;;60.22;;
65572;SDS011;52214;50.940;13.996;2023-03-01T08:41:33;91.80;;;58.30;;
65572;SDS011;52214;50.940;13.996;2023-03-01T08:44:12;93.97;;;59.65;;
65572;SDS011;52214;50.940;13.996;2023-03-01T08:46:43;89.95;;;60.28;;
65572;SDS011;52214;50.940;13.996;2023-03-01T08:49:12;92.60;;;60.35;;
65572;SDS011;52214;50.940;13.996;2023-03-01T08:51:40;90.13;;;59.00;;
65572;SDS011;52214;50.940;13.996;2023-03-01T08:54:10;94.07;;;59.63;;
65572;SDS011;52214;50.940;13.996;2023-03-01T08:56:39;92.00;;;58.20;;
65572;SDS011;52214;50.940;13.996;2023-03-01T08:59:06;94.70;;;58.97;;
65572;SDS011;52214;50.940;13.996;2023-03-01T09:01:33;85.35;;;55.92;;
65572;SDS011;52214;50.940;13.996;2023-03-01T09:04:10;90.00;;;58.80;;
65572;SDS011;52214;50.940;13.996;2023-03-01T09:06:42;89.43;;;57.13;;
65572;SDS011;52214;50.940;13.996;2023-03-01T09:09:14;90.68;;;56.72;;
65572;SDS011;52214;50.940;13.996;2023-03-01T09:11:41;81.55;;;56.75;;
65572;SDS011;52214;50.940;13.996;2023-03-01T09:14:07;87.72;;;56.40;;
65572;SDS011;52214;50.940;13.996;2023-03-01T09:16:33;84.77;;;56.03;;
65572;SDS011;52214;50.940;13.996;2023-03-01T09:19:01;86.43;;;56.63;;
65572;SDS011;52214;50.940;13.996;2023-03-01T09:21:28;84.88;;;54.05;;
65572;SDS011;52214;50.940;13.996;2023-03-01T09:23:55;85.03;;;55.05;;
65572;SDS011;52214;50.940;13.996;2023-03-01T09:26:22;82.13;;;53.73;;
65572;SDS011;52214;50.940;13.996;2023-03-01T09:28:49;80.10;;;53.28;;
65572;SDS011;52214;50.940;13.996;2023-03-01T09:31:18;81.85;;;57.17;;
65572;SDS011;52214;50.940;13.996;2023-03-01T09:33:46;85.50;;;54.17;;
65572;SDS011;52214;50.940;13.996;2023-03-01T09:36:14;81.68;;;55.17;;
65572;SDS011;52214;50.940;13.996;2023-03-01T09:38:42;79.90;;;52.57;;
65572;SDS011;52214;50.940;13.996;2023-03-01T09:41:09;75.85;;;52.70;;
65572;SDS011;52214;50.940;13.996;2023-03-01T09:43:47;75.35;;;51.00;;
65572;SDS011;52214;50.940;13.996;2023-03-01T09:46:19;78.13;;;53.90;;
65572;SDS011;52214;50.940;13.996;2023-03-01T09:54:19;81.38;;;54.67;;
65572;SDS011;52214;50.940;13.996;2023-03-01T09:56:47;78.53;;;51.30;;
65572;SDS011;52214;50.940;13.996;2023-03-01T10:13:03;69.25;;;47.75;;
65572;SDS011;52214;50.940;13.996;2023-03-01T10:20:53;72.17;;;48.17;;
65572;SDS011;52214;50.940;13.996;2023-03-01T10:23:23;74.93;;;48.75;;
65572;SDS011;52214;50.940;13.996;2023-03-01T10:25:54;71.82;;;48.55;;
65572;SDS011;52214;50.940;13.996;2023-03-01T10:28:40;73.05;;;49.25;;
65572;SDS011;52214;50.940;13.996;2023-03-01T10:31:18;72.57;;;48.58;;
65572;SDS011;52214;50.940;13.996;2023-03-01T10:33:47;67.30;;;47.90;;
65572;SDS011;52214;50.940;13.996;2023-03-01T10:36:16;71.45;;;47.80;;
65572;SDS011;52214;50.940;13.996;2023-03-01T10:38:51;73.57;;;49.35;;
65572;SDS011;52214;50.940;13.996;2023-03-01T10:41:21;69.43;;;48.03;;
65572;SDS011;52214;50.940;13.996;2023-03-01T10:43:50;66.57;;;46.10;;
65572;SDS011;52214;50.940;13.996;2023-03-01T10:46:25;64.55;;;46.08;;
65572;SDS011;52214;50.940;13.996;2023-03-01T10:56:49;65.53;;;44.45;;
65572;SDS011;52214;50.940;13.996;2023-03-01T10:59:20;70.53;;;45.95;;
65572;SDS011;52214;50.940;13.996;2023-03-01T11:09:47;66.63;;;43.50;;
65572;SDS011;52214;50.940;13.996;2023-03-01T11:12:14;63.75;;;43.08;;
65572;SDS011;52214;50.940;13.996;2023-03-01T11:14:49;58.78;;;40.88;;
65572;SDS011;52214;50.940;13.996;2023-03-01T11:17:21;59.27;;;40.20;;
65572;SDS011;52214;50.940;13.996;2023-03-01T11:19:59;61.20;;;41.15;;
65572;SDS011;52214;50.940;13.996;2023-03-01T11:27:47;61.80;;;42.15;;
65572;SDS011;52214;50.940;13.996;2023-03-01T11:30:18;59.13;;;39.77;;
65572;SDS011;52214;50.940;13.996;2023-03-01T11:36:02;57.40;;;40.75;;
65572;SDS011;52214;50.940;13.996;2023-03-01T11:38:34;58.10;;;40.85;;
65572;SDS011;52214;50.940;13.996;2023-03-01T11:41:06;58.22;;;41.42;;
65572;SDS011;52214;50.940;13.996;2023-03-01T11:43:48;58.50;;;39.90;;
65572;SDS011;52214;50.940;13.996;2023-03-01T11:46:27;62.28;;;41.00;;
65572;SDS011;52214;50.940;13.996;2023-03-01T11:49:25;58.70;;;40.05;;
65572;SDS011;52214;50.940;13.996;2023-03-01T12:00:37;57.80;;;38.47;;
65572;SDS011;52214;50.940;13.996;2023-03-01T12:03:33;55.20;;;38.25;;
65572;SDS011;52214;50.940;13.996;2023-03-01T12:06:32;55.55;;;37.58;;
65572;SDS011;52214;50.940;13.996;2023-03-01T12:09:16;54.85;;;37.35;;
65572;SDS011;52214;50.940;13.996;2023-03-01T12:11:57;54.50;;;38.03;;
65572;SDS011;52214;50.940;13.996;2023-03-01T12:31:00;53.80;;;37.87;;
65572;SDS011;52214;50.940;13.996;2023-03-01T12:33:57;49.45;;;35.72;;
65572;SDS011;52214;50.940;13.996;2023-03-01T12:36:37;53.20;;;37.37;;
65572;SDS011;52214;50.940;13.996;2023-03-01T12:50:23;54.70;;;36.50;;
65572;SDS011;52214;50.940;13.996;2023-03-01T12:52:56;48.97;;;35.03;;
65572;SDS011;52214;50.940;13.996;2023-03-01T12:55:26;52.53;;;36.67;;
65572;SDS011;52214;50.940;13.996;2023-03-01T12:58:02;50.20;;;36.28;;
65572;SDS011;52214;50.940;13.996;2023-03-01T13:00:40;50.85;;;36.00;;
65572;SDS011;52214;50.940;13.996;2023-03-01T13:06:04;50.60;;;35.38;;
65572;SDS011;52214;50.940;13.996;2023-03-01T13:08:41;50.70;;;34.75;;
65572;SDS011;52214;50.940;13.996;2023-03-01T13:11:18;50.90;;;36.05;;
65572;SDS011;52214;50.940;13.996;2023-03-01T13:13:46;49.13;;;34.53;;
65572;SDS011;52214;50.940;13.996;2023-03-01T13:19:25;51.58;;;33.85;;
65572;SDS011;52214;50.940;13.996;2023-03-01T13:21:55;49.25;;;34.78;;
65572;SDS011;52214;50.940;13.996;2023-03-01T13:24:23;49.42;;;33.47;;
65572;SDS011;52214;50.940;13.996;2023-03-01T13:27:10;49.97;;;34.80;;
65572;SDS011;52214;50.940;13.996;2023-03-01T13:29:49;48.88;;;34.35;;
65572;SDS011;52214;50.940;13.996;2023-03-01T13:32:21;50.83;;;33.85;;
65572;SDS011;52214;50.940;13.996;2023-03-01T13:35:01;46.20;;;32.35;;
65572;SDS011;52214;50.940;13.996;2023-03-01T13:37:47;45.03;;;32.80;;
65572;SDS011;52214;50.940;13.996;2023-03-01T13:43:27;47.17;;;34.08;;
65572;SDS011;52214;50.940;13.996;2023-03-01T13:45:55;46.35;;;33.05;;
65572;SDS011;52214;50.940;13.996;2023-03-01T13:48:25;48.60;;;33.33;;
65572;SDS011;52214;50.940;13.996;2023-03-01T13:50:55;45.25;;;31.75;;
65572;SDS011;52214;50.940;13.996;2023-03-01T13:53:26;44.92;;;33.05;;
65572;SDS011;52214;50.940;13.996;2023-03-01T13:55:58;46.20;;;32.72;;
65572;SDS011;52214;50.940;13.996;2023-03-01T13:58:29;48.67;;;33.08;;
65572;SDS011;52214;50.940;13.996;2023-03-01T14:00:59;45.50;;;33.40;;
65572;SDS011;52214;50.940;13.996;2023-03-01T14:03:28;47.08;;;31.98;;
65572;SDS011;52214;50.940;13.996;2023-03-01T14:05:58;43.92;;;31.17;;
65572;SDS011;52214;50.940;13.996;2023-03-01T14:08:33;45.92;;;31.95;;
65572;SDS011;52214;50.940;13.996;2023-03-01T14:24:47;43.45;;;30.73;;
65572;SDS011;52214;50.940;13.996;2023-03-01T14:27:19;41.43;;;31.37;;
65572;SDS011;52214;50.940;13.996;2023-03-01T14:35:20;41.13;;;30.10;;
65572;SDS011;52214;50.940;13.996;2023-03-01T14:37:48;42.15;;;30.10;;
65572;SDS011;52214;50.940;13.996;2023-03-01T14:40:20;40.70;;;29.97;;
65572;SDS011;52214;50.940;13.996;2023-03-01T14:42:49;39.80;;;29.25;;
65572;SDS011;52214;50.940;13.996;2023-03-01T14:45:16;40.20;;;30.52;;
65572;SDS011;52214;50.940;13.996;2023-03-01T14:47:43;42.22;;;29.33;;
65572;SDS011;52214;50.940;13.996;2023-03-01T14:52:57;41.00;;;31.33;;
65572;SDS011;52214;50.940;13.996;2023-03-01T14:55:30;38.38;;;29.15;;
65572;SDS011;52214;50.940;13.996;2023-03-01T14:58:00;43.28;;;29.95;;
65572;SDS011;52214;50.940;13.996;2023-03-01T15:00:30;43.55;;;31.45;;
65572;SDS011;52214;50.940;13.996;2023-03-01T15:03:00;41.00;;;29.27;;
65572;SDS011;52214;50.940;13.996;2023-03-01T15:05:34;41.20;;;30.40;;
65572;SDS011;52214;50.940;13.996;2023-03-01T15:08:01;38.08;;;29.52;;
65572;SDS011;52214;50.940;13.996;2023-03-01T15:10:31;38.28;;;28.92;;
65572;SDS011;52214;50.940;13.996;2023-03-01T15:20:52;38.88;;;28.80;;
65572;SDS011;52214;50.940;13.996;2023-03-01T15:23:23;37.10;;;28.42;;
65572;SDS011;52214;50.940;13.996;2023-03-01T15:25:53;36.17;;;27.43;;
65572;SDS011;52214;50.940;13.996;2023-03-01T15:28:23;37.90;;;27.27;;
65572;SDS011;52214;50.940;13.996;2023-03-01T15:30:56;37.42;;;29.30;;
65572;SDS011;52214;50.940;13.996;2023-03-01T15:33:29;35.60;;;27.33;;
65572;SDS011;52214;50.940;13.996;2023-03-01T15:35:59;37.72;;;27.48;;
65572;SDS011;52214;50.940;13.996;2023-03-01T15:38:28;35.13;;;26.47;;
65572;SDS011;52214;50.940;13.996;2023-03-01T15:40:57;35.58;;;26.83;;
65572;SDS011;52214;50.940;13.996;2023-03-01T15:51:20;37.33;;;27.20;;
65572;SDS011;52214;50.940;13.996;2023-03-01T15:53:53;36.33;;;27.77;;
65572;SDS011;52214;50.940;13.996;2023-03-01T15:56:19;34.58;;;27.05;;
65572;SDS011;52214;50.940;13.996;2023-03-01T15:58:45;38.83;;;28.33;;
65572;SDS011;52214;50.940;13.996;2023-03-01T16:01:12;36.47;;;26.77;;
65572;SDS011;52214;50.940;13.996;2023-03-01T16:03:40;35.80;;;26.77;;
65572;SDS011;52214;50.940;13.996;2023-03-01T16:06:08;39.72;;;28.80;;
65572;SDS011;52214;50.940;13.996;2023-03-01T16:08:36;36.00;;;27.02;;
65572;SDS011;52214;50.940;13.996;2023-03-01T16:11:02;37.47;;;26.90;;
65572;SDS011;52214;50.940;13.996;2023-03-01T16:13:31;37.77;;;27.70;;
65572;SDS011;52214;50.940;13.996;2023-03-01T16:15:57;36.80;;;26.90;;
65572;SDS011;52214;50.940;13.996;2023-03-01T16:18:24;38.20;;;28.05;;
65572;SDS011;52214;50.940;13.996;2023-03-01T16:20:49;35.10;;;26.87;;
65572;SDS011;52214;50.940;13.996;2023-03-01T16:23:15;36.92;;;26.85;;
65572;SDS011;52214;50.940;13.996;2023-03-01T16:25:41;38.50;;;28.17;;